Portada
METAR-TAF:

METAR-TAF

Aeroports :

Cooma, Austràlia

latitud: 36-18-00S, longitud: 148-58-24E, altitud: 947 m

Observació

L'informe es va fer fa 19 minuts, a les 23:30 UTC
Vent 12 kt del Nord/Nord-Est
Temperatura 16°C
Humitat 100%
Pressió 1003 hPa
Visibilitat: 4800 m
Núvols disperses a una alçada de 1200 ft
Núvols disperses a una alçada de 6700 ft
Cel ennuvolat a una alçada de 7800 ft

METAR: YCOM 122330Z AUTO 03012KT 4800 // SCT012 SCT067 BKN078 16/16 Q1003

Hora: 10:49 (23:49 UTC)


TAF: manca

Observacions i pronòstics meteorològics de més de 4000 aeroports (METAR i TAF).

Les estacions disponibles són els punts grocs i vermells al mapa.

Posi el ratolí al punt desitjat per veure el nom de l'estació.

Feu clic per veure les observacions i els pronòstics meteorològics.

Per canviar el mapa: feu clic els botons verds amb una creu de color negre per apropar; al botó verd amb un guió per allunyar la imatge; o en les fletxes verdes per a mapes adjacents.


METAR-TAF: